createdAt,value
2023-03-17T00:00:30.687Z,33.60
2023-03-17T00:01:30.534Z,39.60
2023-03-17T00:02:30.571Z,41.50
2023-03-17T00:03:30.556Z,31.50
2023-03-17T00:04:30.525Z,24.40
2023-03-17T00:05:30.513Z,20.20
2023-03-17T00:06:30.529Z,21.50
2023-03-17T00:07:30.500Z,19.30
2023-03-17T00:08:30.486Z,24.20
2023-03-17T00:09:30.521Z,20.50
2023-03-17T00:10:30.640Z,16.60
2023-03-17T00:11:30.472Z,15.90
2023-03-17T00:12:30.540Z,15.70
2023-03-17T00:13:30.473Z,15.80
2023-03-17T00:14:30.466Z,15.90
2023-03-17T00:15:30.439Z,17.40
2023-03-17T00:16:30.435Z,18.50
2023-03-17T00:17:30.417Z,16.30
2023-03-17T00:18:30.436Z,16.90
2023-03-17T00:19:30.454Z,17.30
2023-03-17T00:20:30.657Z,16.90
2023-03-17T00:21:30.421Z,16.10
2023-03-17T00:22:30.404Z,16.80
2023-03-17T00:23:30.380Z,17.40
2023-03-17T00:24:30.452Z,25.30
2023-03-17T00:25:30.376Z,20.90
2023-03-17T00:26:30.376Z,20.20
2023-03-17T00:27:30.395Z,15.40
2023-03-17T00:28:30.361Z,21.80
2023-03-17T00:29:30.363Z,24.70
2023-03-17T00:30:30.587Z,23.40
2023-03-17T00:31:30.410Z,27.10
2023-03-17T00:32:30.366Z,32.40
2023-03-17T00:33:30.325Z,40.90
2023-03-17T00:34:30.361Z,34.00
2023-03-17T00:35:30.388Z,36.20
2023-03-17T00:36:30.310Z,34.60
2023-03-17T00:37:30.286Z,32.90
2023-03-17T00:38:30.314Z,38.40
2023-03-17T00:39:30.287Z,37.20
2023-03-17T00:40:30.541Z,34.20
2023-03-17T00:41:30.285Z,33.00
2023-03-17T00:42:30.275Z,46.40
2023-03-17T00:43:30.756Z,32.00
2023-03-17T00:44:31.240Z,23.60
2023-03-17T00:45:30.230Z,19.30
2023-03-17T00:46:30.277Z,20.90
2023-03-17T00:47:30.232Z,21.50
2023-03-17T00:48:30.268Z,16.90
2023-03-17T00:49:30.194Z,17.60
2023-03-17T00:50:30.437Z,17.50
2023-03-17T00:51:30.227Z,17.50
2023-03-17T00:52:30.190Z,19.30
2023-03-17T00:53:30.202Z,21.30
2023-03-17T00:54:31.222Z,16.00
2023-03-17T00:55:30.209Z,17.70
2023-03-17T00:56:30.184Z,16.60
2023-03-17T00:57:30.188Z,19.30
2023-03-17T00:58:30.159Z,22.00
2023-03-17T00:59:30.161Z,20.40
2023-03-17T01:00:30.480Z,20.60
2023-03-17T01:01:30.149Z,25.90
2023-03-17T01:02:30.116Z,39.40
2023-03-17T01:03:30.138Z,35.20
2023-03-17T01:04:30.137Z,30.10
2023-03-17T01:05:30.148Z,34.80
2023-03-17T01:06:30.087Z,30.50
2023-03-17T01:07:30.117Z,36.90
2023-03-17T01:08:30.204Z,36.30
2023-03-17T01:09:30.088Z,34.40
2023-03-17T01:10:30.247Z,35.20
2023-03-17T01:11:30.103Z,35.70
2023-03-17T01:12:30.102Z,37.40
2023-03-17T01:13:30.055Z,36.40
2023-03-17T01:14:30.058Z,40.60
2023-03-17T01:15:30.056Z,40.60
2023-03-17T01:16:30.141Z,39.10
2023-03-17T01:17:30.054Z,37.60
2023-03-17T01:18:30.183Z,34.80
2023-03-17T01:19:30.037Z,38.80
2023-03-17T01:20:30.189Z,42.50
2023-03-17T01:21:30.023Z,36.10
2023-03-17T01:22:30.037Z,35.40
2023-03-17T01:23:30.050Z,41.20
2023-03-17T01:24:30.905Z,40.30
2023-03-17T01:25:29.985Z,40.30
2023-03-17T01:26:31.050Z,46.50
2023-03-17T01:27:30.007Z,32.60
2023-03-17T01:28:29.997Z,19.90
2023-03-17T01:29:29.981Z,20.10
2023-03-17T01:30:30.166Z,21.80
2023-03-17T01:31:30.041Z,20.60
2023-03-17T01:32:29.986Z,22.10
2023-03-17T01:33:29.953Z,21.10
2023-03-17T01:34:29.975Z,20.50
2023-03-17T01:35:29.994Z,22.50
2023-03-17T01:36:29.973Z,22.90
2023-03-17T01:37:29.904Z,26.70
2023-03-17T01:38:29.931Z,26.30
2023-03-17T01:39:29.923Z,23.90
2023-03-17T01:40:30.115Z,42.30
2023-03-17T01:41:29.908Z,39.00
2023-03-17T01:42:30.891Z,44.80
2023-03-17T01:43:29.893Z,44.00
2023-03-17T01:44:29.852Z,46.80
2023-03-17T01:45:29.880Z,40.60
2023-03-17T01:46:29.879Z,44.60
2023-03-17T01:47:29.832Z,41.40
2023-03-17T01:48:29.845Z,50.40
2023-03-17T01:49:29.944Z,38.30
2023-03-17T01:50:30.203Z,41.50
2023-03-17T01:51:29.835Z,50.80
2023-03-17T01:52:29.836Z,42.40
2023-03-17T01:53:29.840Z,39.00
2023-03-17T01:54:29.830Z,25.90
2023-03-17T01:55:29.815Z,21.60
2023-03-17T01:56:29.793Z,21.20
2023-03-17T01:57:29.806Z,22.40
2023-03-17T01:58:29.788Z,38.00
2023-03-17T01:59:29.819Z,50.50
2023-03-17T02:00:30.109Z,51.80
2023-03-17T02:01:29.764Z,43.10
2023-03-17T02:02:29.744Z,38.40
2023-03-17T02:03:30.328Z,41.80
2023-03-17T02:04:29.816Z,35.30
2023-03-17T02:05:29.868Z,22.60
2023-03-17T02:06:29.719Z,20.70
2023-03-17T02:07:29.770Z,20.70
2023-03-17T02:08:29.720Z,20.60
2023-03-17T02:09:29.727Z,21.40
2023-03-17T02:10:30.011Z,22.30
2023-03-17T02:11:29.671Z,21.70
2023-03-17T02:12:29.710Z,20.70
2023-03-17T02:13:30.276Z,21.40
2023-03-17T02:14:29.681Z,21.60
2023-03-17T02:15:29.660Z,20.30
2023-03-17T02:16:29.690Z,22.60
2023-03-17T02:17:29.639Z,21.50
2023-03-17T02:18:29.659Z,20.30
2023-03-17T02:19:29.638Z,23.10
2023-03-17T02:20:29.977Z,21.50
2023-03-17T02:21:29.632Z,20.70
2023-03-17T02:22:29.631Z,20.80
2023-03-17T02:23:29.687Z,21.10
2023-03-17T02:24:29.599Z,21.30
2023-03-17T02:25:29.607Z,23.50
2023-03-17T02:26:29.581Z,21.80
2023-03-17T02:27:29.595Z,21.10
2023-03-17T02:28:29.582Z,28.90
2023-03-17T02:29:29.697Z,35.50
2023-03-17T02:30:29.893Z,28.90
2023-03-17T02:31:29.550Z,25.10
2023-03-17T02:32:29.608Z,20.80
2023-03-17T02:33:29.599Z,20.60
2023-03-17T02:34:29.562Z,20.60
2023-03-17T02:35:29.529Z,21.40
2023-03-17T02:36:29.585Z,21.40
2023-03-17T02:37:29.533Z,21.20
2023-03-17T02:38:29.537Z,23.00
2023-03-17T02:39:29.529Z,22.90
2023-03-17T02:40:29.869Z,27.90
2023-03-17T02:41:29.501Z,27.30
2023-03-17T02:42:29.493Z,27.50
2023-03-17T02:43:29.485Z,32.30
2023-03-17T02:44:29.503Z,30.30
2023-03-17T02:45:29.518Z,35.30
2023-03-17T02:46:29.489Z,52.20
2023-03-17T02:47:29.494Z,56.60
2023-03-17T02:48:29.438Z,54.90
2023-03-17T02:49:29.451Z,50.80
2023-03-17T02:50:29.793Z,51.20
2023-03-17T02:51:29.451Z,44.40
2023-03-17T02:52:29.427Z,51.90
2023-03-17T02:53:29.461Z,53.50
2023-03-17T02:54:29.548Z,49.00
2023-03-17T02:55:29.395Z,52.10
2023-03-17T02:56:29.426Z,54.20
2023-03-17T02:57:29.434Z,51.40
2023-03-17T02:58:29.377Z,48.70
2023-03-17T02:59:29.383Z,45.70
2023-03-17T03:00:29.658Z,44.60
2023-03-17T03:01:29.520Z,41.80
2023-03-17T03:02:29.395Z,43.00
2023-03-17T03:03:29.349Z,47.00
2023-03-17T03:04:29.381Z,40.40
2023-03-17T03:05:29.353Z,36.70
2023-03-17T03:06:29.319Z,45.20
2023-03-17T03:07:29.324Z,45.30
2023-03-17T03:08:29.336Z,51.60
2023-03-17T03:09:29.309Z,42.80
2023-03-17T03:10:29.616Z,44.10
2023-03-17T03:11:29.351Z,44.20
2023-03-17T03:12:29.283Z,41.10
2023-03-17T03:13:29.316Z,39.70
2023-03-17T03:14:29.276Z,43.10
2023-03-17T03:15:29.343Z,42.80
2023-03-17T03:16:29.333Z,46.30
2023-03-17T03:17:29.261Z,45.80
2023-03-17T03:18:29.288Z,58.40
2023-03-17T03:19:29.230Z,73.90
2023-03-17T03:20:29.510Z,61.50
2023-03-17T03:21:29.243Z,64.00
2023-03-17T03:22:29.224Z,60.10
2023-03-17T03:23:29.207Z,62.50
2023-03-17T03:24:29.236Z,55.70
2023-03-17T03:25:29.226Z,58.20
2023-03-17T03:26:29.211Z,54.10
2023-03-17T03:27:29.175Z,60.30
2023-03-17T03:28:29.187Z,66.00
2023-03-17T03:29:29.214Z,57.40
2023-03-17T03:30:29.507Z,64.80
2023-03-17T03:31:29.242Z,63.20
2023-03-17T03:32:29.201Z,57.20
2023-03-17T03:33:29.207Z,46.90
2023-03-17T03:34:29.198Z,55.30
2023-03-17T03:35:29.139Z,49.00
2023-03-17T03:36:29.169Z,61.20
2023-03-17T03:37:29.136Z,54.20
2023-03-17T03:38:29.116Z,59.20
2023-03-17T03:39:29.095Z,58.90
2023-03-17T03:40:29.436Z,53.00
2023-03-17T03:41:29.113Z,53.90
2023-03-17T03:42:29.085Z,47.30
2023-03-17T03:43:29.917Z,47.20
2023-03-17T03:44:29.067Z,48.80
2023-03-17T03:45:29.064Z,47.30
2023-03-17T03:46:29.158Z,46.40
2023-03-17T03:47:29.103Z,50.10
2023-03-17T03:48:29.087Z,50.30
2023-03-17T03:49:29.033Z,48.50
2023-03-17T03:50:29.421Z,42.50
2023-03-17T03:51:29.018Z,47.30
2023-03-17T03:52:29.052Z,52.20
2023-03-17T03:53:29.034Z,43.00
2023-03-17T03:54:29.013Z,47.40
2023-03-17T03:55:29.002Z,38.80
2023-03-17T03:56:29.000Z,40.50
2023-03-17T03:57:28.999Z,43.50
2023-03-17T03:58:29.017Z,42.70
2023-03-17T03:59:29.035Z,47.20
2023-03-17T04:00:29.240Z,41.40
2023-03-17T04:01:28.966Z,51.60
2023-03-17T04:02:28.955Z,46.50
2023-03-17T04:03:28.969Z,45.80
2023-03-17T04:04:28.962Z,46.30
2023-03-17T04:05:28.946Z,39.30
2023-03-17T04:06:28.956Z,41.50
2023-03-17T04:07:28.923Z,41.90
2023-03-17T04:08:28.962Z,42.60
2023-03-17T04:09:28.939Z,43.10
2023-03-17T04:10:29.321Z,43.30
2023-03-17T04:11:28.942Z,45.90
2023-03-17T04:12:28.889Z,29.40
2023-03-17T04:13:28.885Z,42.30
2023-03-17T04:14:28.892Z,36.20
2023-03-17T04:15:28.895Z,40.80
2023-03-17T04:16:28.907Z,39.80
2023-03-17T04:17:28.873Z,36.60
2023-03-17T04:18:28.857Z,40.40
2023-03-17T04:19:28.854Z,38.20
2023-03-17T04:20:29.238Z,39.80
2023-03-17T04:21:28.842Z,47.60
2023-03-17T04:22:28.830Z,38.00
2023-03-17T04:23:28.980Z,39.80
2023-03-17T04:24:28.824Z,39.80
2023-03-17T04:25:28.822Z,40.80
2023-03-17T04:26:28.817Z,44.20
2023-03-17T04:27:28.806Z,41.00
2023-03-17T04:28:28.775Z,43.70
2023-03-17T04:29:28.791Z,37.80
2023-03-17T04:30:29.254Z,40.80
2023-03-17T04:31:28.835Z,43.60
2023-03-17T04:32:28.796Z,41.30
2023-03-17T04:33:28.778Z,28.00
2023-03-17T04:34:28.759Z,35.40
2023-03-17T04:35:28.755Z,35.10
2023-03-17T04:36:28.745Z,36.00
2023-03-17T04:37:28.755Z,36.40
2023-03-17T04:38:28.724Z,36.20
2023-03-17T04:39:28.758Z,39.50
2023-03-17T04:40:28.906Z,33.90
2023-03-17T04:41:28.721Z,36.50
2023-03-17T04:42:28.867Z,36.90
2023-03-17T04:43:28.781Z,24.00
2023-03-17T04:44:28.676Z,25.50
2023-03-17T04:45:28.747Z,20.90
2023-03-17T04:46:28.689Z,25.70
2023-03-17T04:47:28.727Z,22.40
2023-03-17T04:48:28.712Z,32.80
2023-03-17T04:49:28.659Z,36.80
2023-03-17T04:50:28.788Z,24.10
2023-03-17T04:51:28.662Z,29.20
2023-03-17T04:52:28.645Z,31.90
2023-03-17T04:53:28.736Z,30.90
2023-03-17T04:54:28.651Z,30.50
2023-03-17T04:55:28.641Z,33.90
2023-03-17T04:56:31.201Z,31.00
2023-03-17T04:57:28.664Z,34.70
2023-03-17T04:58:31.026Z,30.50
2023-03-17T04:59:29.732Z,36.60
2023-03-17T05:00:28.756Z,36.40
2023-03-17T05:01:28.660Z,34.50
2023-03-17T05:02:28.617Z,36.40
2023-03-17T05:03:28.952Z,28.30
2023-03-17T05:04:31.999Z,34.20
2023-03-17T05:05:29.590Z,33.50
2023-03-17T05:06:28.652Z,32.30
2023-03-17T05:07:28.580Z,38.10
2023-03-17T05:08:28.616Z,32.50
2023-03-17T05:09:28.605Z,34.00
2023-03-17T05:10:28.956Z,29.30
2023-03-17T05:11:28.555Z,27.10
2023-03-17T05:12:28.656Z,30.60
2023-03-17T05:13:28.533Z,32.20
2023-03-17T05:14:28.528Z,21.90
2023-03-17T05:15:28.585Z,27.00
2023-03-17T05:16:28.543Z,26.90
2023-03-17T05:17:28.509Z,31.30
2023-03-17T05:18:28.498Z,30.70
2023-03-17T05:19:28.524Z,30.90
2023-03-17T05:20:29.018Z,25.10
2023-03-17T05:21:28.509Z,28.70
2023-03-17T05:22:28.514Z,24.70
2023-03-17T05:23:28.504Z,24.90
2023-03-17T05:24:28.508Z,22.60
2023-03-17T05:25:28.492Z,16.50
2023-03-17T05:26:28.470Z,19.20
2023-03-17T05:27:28.469Z,22.30
2023-03-17T05:28:28.501Z,19.00
2023-03-17T05:29:28.477Z,25.20
2023-03-17T05:30:28.547Z,20.20
2023-03-17T05:31:28.488Z,19.60
2023-03-17T05:32:29.470Z,19.30
2023-03-17T05:33:28.435Z,22.70
2023-03-17T05:34:28.438Z,23.30
2023-03-17T05:35:28.425Z,17.40
2023-03-17T05:36:28.424Z,21.80
2023-03-17T05:37:28.429Z,26.30
2023-03-17T05:38:28.407Z,29.00
2023-03-17T05:39:28.475Z,24.60
2023-03-17T05:40:29.663Z,28.40
2023-03-17T05:41:28.405Z,26.20
2023-03-17T05:42:28.405Z,26.70
2023-03-17T05:43:28.448Z,21.80
2023-03-17T05:44:28.458Z,23.10
2023-03-17T05:45:28.397Z,20.70
2023-03-17T05:46:28.433Z,17.00
2023-03-17T05:47:28.366Z,15.20
2023-03-17T05:48:28.367Z,16.30
2023-03-17T05:49:28.457Z,17.90
2023-03-17T05:50:28.434Z,21.40
2023-03-17T05:51:28.317Z,18.00
2023-03-17T05:52:28.328Z,17.80
2023-03-17T05:53:28.346Z,19.00
2023-03-17T05:54:28.307Z,17.20
2023-03-17T05:55:29.279Z,17.50
2023-03-17T05:56:28.323Z,20.00
2023-03-17T05:57:28.297Z,19.70
2023-03-17T05:58:28.287Z,20.10
2023-03-17T05:59:28.327Z,25.00
2023-03-17T06:00:29.297Z,27.70
2023-03-17T06:01:28.429Z,38.40
2023-03-17T06:02:28.294Z,53.60
2023-03-17T06:03:28.299Z,51.90
2023-03-17T06:04:28.259Z,77.40
2023-03-17T06:05:28.280Z,81.90
2023-03-17T06:06:28.264Z,76.80
2023-03-17T06:07:31.186Z,41.20
2023-03-17T06:08:30.225Z,43.10
2023-03-17T06:09:28.227Z,42.00
2023-03-17T06:10:28.232Z,24.40
2023-03-17T06:11:28.229Z,18.20
2023-03-17T06:12:28.189Z,21.10
2023-03-17T06:13:28.193Z,19.80
2023-03-17T06:14:28.200Z,21.20
2023-03-17T06:15:28.346Z,21.90
2023-03-17T06:16:28.174Z,23.90
2023-03-17T06:17:28.158Z,27.20
2023-03-17T06:18:28.189Z,26.90
2023-03-17T06:19:28.188Z,42.10
2023-03-17T06:20:28.198Z,46.00
2023-03-17T06:21:28.140Z,45.10
2023-03-17T06:22:28.150Z,49.60
2023-03-17T06:23:28.141Z,44.00
2023-03-17T06:24:28.120Z,41.10
2023-03-17T06:25:28.342Z,41.10
2023-03-17T06:26:28.132Z,55.10
2023-03-17T06:27:28.136Z,80.00
2023-03-17T06:28:28.193Z,69.70
2023-03-17T06:29:28.166Z,64.50
2023-03-17T06:30:28.113Z,59.90
2023-03-17T06:31:28.199Z,70.50
2023-03-17T06:32:28.298Z,70.90
2023-03-17T06:33:28.098Z,65.60
2023-03-17T06:34:28.107Z,58.90
2023-03-17T06:35:28.162Z,92.50
2023-03-17T06:36:28.065Z,78.30
2023-03-17T06:37:28.158Z,88.70
2023-03-17T06:38:28.048Z,80.00
2023-03-17T06:39:28.092Z,72.50
2023-03-17T06:40:28.135Z,71.90
2023-03-17T06:41:28.092Z,64.00
2023-03-17T06:42:28.100Z,48.20
2023-03-17T06:43:28.124Z,30.20
2023-03-17T06:44:28.011Z,29.40
2023-03-17T06:45:27.995Z,37.70
2023-03-17T06:46:28.097Z,34.90
2023-03-17T06:47:27.975Z,30.10
2023-03-17T06:48:27.974Z,33.40
2023-03-17T06:49:27.962Z,36.60
2023-03-17T06:50:27.987Z,37.70
2023-03-17T06:51:27.973Z,39.70
2023-03-17T06:52:27.956Z,39.40
2023-03-17T06:53:27.981Z,43.90
2023-03-17T06:54:27.935Z,44.00
2023-03-17T06:55:27.951Z,41.70
2023-03-17T06:56:30.466Z,43.10
2023-03-17T06:57:28.920Z,42.60
2023-03-17T06:58:27.990Z,38.70
2023-03-17T06:59:28.824Z,36.30
2023-03-17T07:00:27.951Z,32.20
2023-03-17T07:01:27.973Z,31.40
2023-03-17T07:02:27.903Z,31.50
2023-03-17T07:03:28.760Z,32.00
2023-03-17T07:04:27.911Z,28.40
2023-03-17T07:05:27.952Z,24.40
2023-03-17T07:06:27.904Z,25.50
2023-03-17T07:07:27.866Z,21.80
2023-03-17T07:08:27.851Z,14.90
2023-03-17T07:09:27.859Z,14.00
2023-03-17T07:10:27.847Z,14.20
2023-03-17T07:11:27.862Z,16.10
2023-03-17T07:12:27.815Z,15.40
2023-03-17T07:13:27.831Z,14.80
2023-03-17T07:14:27.831Z,15.30
2023-03-17T07:15:27.801Z,13.90
2023-03-17T07:16:27.839Z,13.70
2023-03-17T07:17:27.804Z,11.70
2023-03-17T07:18:27.798Z,13.70
2023-03-17T07:19:27.791Z,12.90
2023-03-17T07:20:27.793Z,13.00
2023-03-17T07:21:27.765Z,14.00
2023-03-17T07:22:27.748Z,17.20
2023-03-17T07:23:27.725Z,17.90
2023-03-17T07:24:27.732Z,14.40
2023-03-17T07:25:27.752Z,12.00
2023-03-17T07:26:27.764Z,10.40
2023-03-17T07:27:27.711Z,12.10
2023-03-17T07:28:28.351Z,12.40
2023-03-17T07:29:27.781Z,13.30
2023-03-17T07:30:27.710Z,12.30
2023-03-17T07:31:27.767Z,9.20
2023-03-17T07:32:27.717Z,7.80
2023-03-17T07:33:27.706Z,9.60
2023-03-17T07:34:27.691Z,12.40
2023-03-17T07:35:27.704Z,8.80
2023-03-17T07:36:27.681Z,8.40
2023-03-17T07:37:27.671Z,7.90
2023-03-17T07:38:27.710Z,6.60
2023-03-17T07:39:28.249Z,10.60
2023-03-17T07:40:27.641Z,6.20
2023-03-17T07:41:27.612Z,6.90
2023-03-17T07:42:27.644Z,6.00
2023-03-17T07:43:27.608Z,6.40
2023-03-17T07:44:27.639Z,6.00
2023-03-17T07:45:27.694Z,8.30
2023-03-17T07:46:27.702Z,7.00
2023-03-17T07:47:27.578Z,5.00
2023-03-17T07:48:27.888Z,5.90
2023-03-17T07:49:40.316Z,6.00
2023-03-17T07:50:29.745Z,9.40
2023-03-17T07:51:27.631Z,5.20
2023-03-17T07:52:27.585Z,6.20
2023-03-17T07:53:27.584Z,10.40
2023-03-17T07:54:27.544Z,6.00
2023-03-17T07:55:27.530Z,6.20
2023-03-17T07:56:27.520Z,8.20
2023-03-17T07:57:27.592Z,6.00
2023-03-17T07:58:27.547Z,5.90
2023-03-17T07:59:27.534Z,5.90
2023-03-17T08:00:27.573Z,5.90
2023-03-17T08:01:27.526Z,5.40
2023-03-17T08:02:27.602Z,4.70
2023-03-17T08:03:27.607Z,7.80
2023-03-17T08:04:27.509Z,7.30
2023-03-17T08:05:27.517Z,5.80
2023-03-17T08:06:27.464Z,6.70
2023-03-17T08:07:27.473Z,5.30
2023-03-17T08:08:27.512Z,4.90
2023-03-17T08:09:27.452Z,6.90
2023-03-17T08:10:27.450Z,6.20
2023-03-17T08:11:29.359Z,5.90
2023-03-17T08:12:28.412Z,7.20
2023-03-17T08:13:27.453Z,5.90
2023-03-17T08:14:27.437Z,6.40
2023-03-17T08:15:27.457Z,7.80
2023-03-17T08:16:27.414Z,7.10
2023-03-17T08:17:27.427Z,5.30
2023-03-17T08:18:27.383Z,4.20
2023-03-17T08:19:27.426Z,5.00
2023-03-17T08:20:27.368Z,5.90
2023-03-17T08:21:27.404Z,5.80
2023-03-17T08:22:27.347Z,4.20
2023-03-17T08:23:27.396Z,5.90
2023-03-17T08:24:27.341Z,5.40
2023-03-17T08:25:27.359Z,4.90
2023-03-17T08:26:27.403Z,5.30
2023-03-17T08:27:27.317Z,5.00
2023-03-17T08:28:27.328Z,8.40
2023-03-17T08:29:27.342Z,5.10
2023-03-17T08:30:27.435Z,5.80
2023-03-17T08:31:27.346Z,6.10
2023-03-17T08:32:27.406Z,5.00
2023-03-17T08:33:27.317Z,5.90
2023-03-17T08:34:27.297Z,4.00
2023-03-17T08:35:27.358Z,6.00
2023-03-17T08:36:27.256Z,4.80
2023-03-17T08:37:27.289Z,5.00
2023-03-17T08:38:27.251Z,4.70
2023-03-17T08:39:27.236Z,14.90
2023-03-17T08:40:27.248Z,6.70
2023-03-17T08:41:27.272Z,5.10
2023-03-17T08:42:27.256Z,4.90
2023-03-17T08:43:27.253Z,5.00
2023-03-17T08:44:27.237Z,4.80
2023-03-17T08:45:27.239Z,6.90
2023-03-17T08:46:27.283Z,4.90
2023-03-17T08:47:27.199Z,7.50
2023-03-17T08:48:27.209Z,5.30
2023-03-17T08:49:27.199Z,4.70
2023-03-17T08:50:27.209Z,4.40
2023-03-17T08:51:27.201Z,5.20
2023-03-17T08:52:27.145Z,5.60
2023-03-17T08:53:27.789Z,5.70
2023-03-17T08:54:27.151Z,5.30
2023-03-17T08:55:27.214Z,7.60
2023-03-17T08:56:27.158Z,5.30
2023-03-17T08:57:27.163Z,6.10
2023-03-17T08:58:27.120Z,4.80
2023-03-17T08:59:27.106Z,4.30
2023-03-17T09:00:27.153Z,4.80
2023-03-17T09:01:27.213Z,4.20
2023-03-17T09:02:27.117Z,4.80
2023-03-17T09:03:27.137Z,7.60
2023-03-17T09:04:27.108Z,5.20
2023-03-17T09:05:27.090Z,4.80
2023-03-17T09:06:27.111Z,6.20
2023-03-17T09:07:27.095Z,5.60
2023-03-17T09:08:27.101Z,6.50
2023-03-17T09:09:27.067Z,7.50
2023-03-17T09:10:27.046Z,9.50
2023-03-17T09:11:27.072Z,8.00
2023-03-17T09:12:27.063Z,10.20
2023-03-17T09:13:27.100Z,7.00
2023-03-17T09:14:27.054Z,5.80
2023-03-17T09:15:27.042Z,4.20
2023-03-17T09:16:27.189Z,4.50
2023-03-17T09:17:27.056Z,6.30
2023-03-17T09:18:27.012Z,5.10
2023-03-17T09:19:27.022Z,7.40
2023-03-17T09:20:27.050Z,5.80
2023-03-17T09:21:27.001Z,8.30
2023-03-17T09:22:27.780Z,8.00
2023-03-17T09:23:27.001Z,7.00
2023-03-17T09:24:26.986Z,4.70
2023-03-17T09:25:26.970Z,4.60
2023-03-17T09:26:26.949Z,6.50
2023-03-17T09:27:26.975Z,7.90
2023-03-17T09:28:26.925Z,5.50
2023-03-17T09:29:26.946Z,6.50
2023-03-17T09:30:26.990Z,4.80
2023-03-17T09:31:28.058Z,7.70
2023-03-17T09:32:27.994Z,6.60
2023-03-17T09:33:26.934Z,5.40
2023-03-17T09:34:26.881Z,4.80
2023-03-17T09:35:26.868Z,6.10
2023-03-17T09:36:26.915Z,6.60
2023-03-17T09:37:26.881Z,5.60
2023-03-17T09:38:26.859Z,4.30
2023-03-17T09:39:26.869Z,5.50
2023-03-17T09:40:28.518Z,4.90
2023-03-17T09:41:27.856Z,5.30
2023-03-17T09:42:26.883Z,4.70
2023-03-17T09:43:26.867Z,5.80
2023-03-17T09:44:26.862Z,5.50
2023-03-17T09:45:26.832Z,5.30
2023-03-17T09:46:26.822Z,8.00
2023-03-17T09:47:26.791Z,5.70
2023-03-17T09:48:26.788Z,5.50
2023-03-17T09:49:26.808Z,5.40
2023-03-17T09:50:26.775Z,7.50
2023-03-17T09:51:26.778Z,7.10
2023-03-17T09:52:26.817Z,5.00
2023-03-17T09:53:26.814Z,5.20
2023-03-17T09:54:26.760Z,5.50
2023-03-17T09:55:26.757Z,5.60
2023-03-17T09:56:26.741Z,5.30
2023-03-17T09:57:26.738Z,5.60
2023-03-17T09:58:26.725Z,5.70
2023-03-17T09:59:26.784Z,5.50
2023-03-17T10:00:26.772Z,5.00
2023-03-17T10:01:26.798Z,5.60
2023-03-17T10:02:26.707Z,5.10
2023-03-17T10:03:26.781Z,5.50
2023-03-17T10:04:26.702Z,6.20
2023-03-17T10:05:26.748Z,5.70
2023-03-17T10:06:26.662Z,6.30
2023-03-17T10:07:26.655Z,25.30
2023-03-17T10:08:31.757Z,37.70
2023-03-17T10:09:28.656Z,31.50
2023-03-17T10:10:26.642Z,31.50
2023-03-17T10:11:26.648Z,16.10
2023-03-17T10:12:26.606Z,41.70
2023-03-17T10:13:26.622Z,25.00
2023-03-17T10:14:26.653Z,38.20
2023-03-17T10:15:26.652Z,40.50
2023-03-17T10:16:26.669Z,46.90
2023-03-17T10:17:26.587Z,18.50
2023-03-17T10:18:26.577Z,6.40
2023-03-17T10:19:26.588Z,28.30
2023-03-17T10:20:26.600Z,17.20
2023-03-17T10:21:26.605Z,18.70
2023-03-17T10:22:26.593Z,15.00
2023-03-17T10:23:26.556Z,24.20
2023-03-17T10:24:26.526Z,12.20
2023-03-17T10:25:26.541Z,15.30
2023-03-17T10:26:26.558Z,6.60
2023-03-17T10:27:27.364Z,33.50
2023-03-17T10:28:26.520Z,19.30
2023-03-17T10:29:26.509Z,21.50
2023-03-17T10:30:26.551Z,16.80
2023-03-17T10:31:26.517Z,32.30
2023-03-17T10:32:26.551Z,14.40
2023-03-17T10:33:26.531Z,20.00
2023-03-17T10:34:26.465Z,12.30
2023-03-17T10:35:26.851Z,13.00
2023-03-17T10:36:26.458Z,16.00
2023-03-17T10:37:26.450Z,5.30
2023-03-17T10:38:26.464Z,15.50
2023-03-17T10:39:26.456Z,10.50
2023-03-17T10:40:26.448Z,13.40
2023-03-17T10:41:26.426Z,13.30
2023-03-17T10:42:26.463Z,17.40
2023-03-17T10:43:26.450Z,19.60
2023-03-17T10:44:26.441Z,21.90
2023-03-17T10:45:26.380Z,9.60
2023-03-17T10:46:26.465Z,18.80
2023-03-17T10:47:26.389Z,13.10
2023-03-17T10:48:26.386Z,23.60
2023-03-17T10:49:26.354Z,13.60
2023-03-17T10:50:26.368Z,18.00
2023-03-17T10:51:27.308Z,16.90
2023-03-17T10:52:26.346Z,6.70
2023-03-17T10:53:26.342Z,12.60
2023-03-17T10:54:26.313Z,9.40
2023-03-17T10:55:26.328Z,9.30
2023-03-17T10:56:26.309Z,5.60
2023-03-17T10:57:26.307Z,6.10
2023-03-17T10:58:26.289Z,5.20
2023-03-17T10:59:26.335Z,6.50
2023-03-17T11:00:26.285Z,4.90
2023-03-17T11:01:26.369Z,5.50
2023-03-17T11:02:26.291Z,6.30
2023-03-17T11:03:26.301Z,6.60
2023-03-17T11:04:26.264Z,5.30
2023-03-17T11:05:26.291Z,4.70
2023-03-17T11:06:26.279Z,4.60
2023-03-17T11:07:26.253Z,5.90
2023-03-17T11:08:26.241Z,4.50
2023-03-17T11:09:26.225Z,7.10
2023-03-17T11:10:26.213Z,5.10
2023-03-17T11:11:26.253Z,4.60
2023-03-17T11:12:26.227Z,4.30
2023-03-17T11:13:26.205Z,4.40
2023-03-17T11:14:26.249Z,4.60
2023-03-17T11:15:26.183Z,4.40
2023-03-17T11:16:26.210Z,4.90
2023-03-17T11:17:26.180Z,4.60
2023-03-17T11:18:26.149Z,5.30
2023-03-17T11:19:26.153Z,4.10
2023-03-17T11:20:26.152Z,4.40
2023-03-17T11:21:26.152Z,4.60
2023-03-17T11:22:26.175Z,5.00
2023-03-17T11:23:26.146Z,4.10
2023-03-17T11:24:26.129Z,5.80
2023-03-17T11:25:26.137Z,4.30
2023-03-17T11:26:26.176Z,4.70
2023-03-17T11:27:26.163Z,4.80
2023-03-17T11:28:26.119Z,3.90
2023-03-17T11:29:26.185Z,5.00
2023-03-17T11:30:26.129Z,4.40
2023-03-17T11:31:26.121Z,4.90
2023-03-17T11:32:26.232Z,4.90
2023-03-17T11:33:26.139Z,6.90
2023-03-17T11:34:26.075Z,4.90
2023-03-17T11:35:26.052Z,4.90
2023-03-17T11:36:26.054Z,4.20
2023-03-17T11:37:26.039Z,17.90
2023-03-17T11:38:26.194Z,4.80
2023-03-17T11:39:26.058Z,3.00
2023-03-17T11:40:26.111Z,6.00
2023-03-17T11:41:26.107Z,3.60
2023-03-17T11:42:26.011Z,7.30
2023-03-17T11:43:26.093Z,4.30
2023-03-17T11:44:26.019Z,6.00
2023-03-17T11:45:25.999Z,4.20
2023-03-17T11:46:26.081Z,5.80
2023-03-17T11:47:26.016Z,3.90
2023-03-17T11:48:25.977Z,3.80
2023-03-17T11:49:25.975Z,6.60
2023-03-17T11:50:25.962Z,5.80
2023-03-17T11:51:25.973Z,5.50
2023-03-17T11:52:25.973Z,4.60
2023-03-17T11:53:26.057Z,7.50
2023-03-17T11:54:25.946Z,3.70
2023-03-17T11:55:25.967Z,4.10
2023-03-17T11:56:26.271Z,5.10
2023-03-17T11:57:25.930Z,3.00
2023-03-17T11:58:25.924Z,5.30
2023-03-17T11:59:25.977Z,3.80
2023-03-17T12:00:25.891Z,3.30
2023-03-17T12:01:25.884Z,5.50
2023-03-17T12:02:25.894Z,4.90
2023-03-17T12:03:25.925Z,4.20
2023-03-17T12:04:25.985Z,4.80
2023-03-17T12:05:25.868Z,3.60
2023-03-17T12:06:25.868Z,4.10
2023-03-17T12:07:25.867Z,3.30
2023-03-17T12:08:25.847Z,4.40
2023-03-17T12:09:25.872Z,3.20
2023-03-17T12:10:25.866Z,4.00
2023-03-17T12:11:25.841Z,3.90
2023-03-17T12:12:25.866Z,4.70
2023-03-17T12:13:25.828Z,3.00
2023-03-17T12:14:25.811Z,3.90
2023-03-17T12:15:25.818Z,5.60
2023-03-17T12:16:25.822Z,3.40
2023-03-17T12:17:27.318Z,4.90
2023-03-17T12:18:26.814Z,3.60
2023-03-17T12:19:25.785Z,5.60
2023-03-17T12:20:25.818Z,3.30
2023-03-17T12:21:25.784Z,3.30
2023-03-17T12:22:25.810Z,4.70
2023-03-17T12:23:25.810Z,4.10
2023-03-17T12:24:25.780Z,2.90
2023-03-17T12:25:25.788Z,3.40
2023-03-17T12:26:25.764Z,4.80
2023-03-17T12:27:25.776Z,3.40
2023-03-17T12:28:25.776Z,3.20
2023-03-17T12:29:25.751Z,3.60
2023-03-17T12:30:25.740Z,5.00
2023-03-17T12:31:25.812Z,2.60
2023-03-17T12:32:25.782Z,4.10
2023-03-17T12:33:25.736Z,2.40
2023-03-17T12:34:25.733Z,3.50
2023-03-17T12:35:25.702Z,3.60
2023-03-17T12:36:25.681Z,3.90
2023-03-17T12:37:25.689Z,3.10
2023-03-17T12:38:25.689Z,4.10
2023-03-17T12:39:25.703Z,4.00
2023-03-17T12:40:26.270Z,3.10
2023-03-17T12:41:26.696Z,3.40
2023-03-17T12:42:25.687Z,4.60
2023-03-17T12:43:25.671Z,4.00
2023-03-17T12:44:25.694Z,4.50
2023-03-17T12:45:25.665Z,3.90
2023-03-17T12:46:25.726Z,4.40
2023-03-17T12:47:25.782Z,3.10
2023-03-17T12:48:25.622Z,4.10
2023-03-17T12:49:25.627Z,4.80
2023-03-17T12:50:25.591Z,3.70
2023-03-17T12:51:25.614Z,5.00
2023-03-17T12:52:26.368Z,5.20
2023-03-17T12:53:25.580Z,3.90
2023-03-17T12:54:25.610Z,4.20
2023-03-17T12:55:25.636Z,3.00
2023-03-17T12:56:25.576Z,6.00
2023-03-17T12:57:25.560Z,5.10
2023-03-17T12:58:26.498Z,4.40
2023-03-17T12:59:26.580Z,4.70
2023-03-17T13:00:25.628Z,7.80
2023-03-17T13:01:25.590Z,4.70